Terminal Aerodrome Forecast
Issued by NWS

Home | Current Version | Previous Version | Text Only | Print | Product List | Glossary On
Versions: 1 2 3 4 5 6 7 8 9 10 11 12 13 14 15 16 17 18 19 20 21 22 23
000
FTUS46 KLOX 111139
TAFBUR
TAF
KBUR 111139Z 1112/1212 14005KT 4SM BR SCT007 OVC020
      TEMPO 1112/1115 2SM -DZ BR BKN006 OVC012
     FM111500 16005KT 4SM BR SCT006 OVC012
     FM112000 17008KT 5SM HZ SCT012 OVC025
     FM120300 VRB03KT 4SM HZ OVC015=

USA.gov is the U.S. government's official web portal to all federal, state and local government web resources and services.